Main page
METAR-TAF:

METAR-TAF

Airports :

Hobart Regional Airport

Hobart, Oklahoma, United States

latitude: 34-59-22N, longitude: 099-03-09W, elevation: 1561 ft

Current weather observation

The report was made 23 minutes ago, at 07:53 UTC
Wind 6 mph from the Southeast
Temperature 72°F
Humidity 78%
Pressure 30.05 in. Hg
Visibility: 10 miles
Few clouds at a height of 9000 ft

METAR: KHBR 240753Z AUTO 14005KT 10SM FEW090 22/18 A3005 RMK AO2 SLP157 T02220183 TSNO

Time: 03:16 (08:16 UTC)


TAF: missing

Weather observations and forecasts of more than 4000 airports (METAR and TAF reports).

The available stations are represented by yellow and red dots on the map.

Hover mouse over dot to see the name of the station.

Then click to see weather observations and forecasts.

To change the map : click on the green buttons with a black cross to zoom in, on the green button with a dash to zoom out, or on the green arrows for adjacent maps.


METAR-TAF: